Time;durP1;ratioP1;P1;durP2;ratioP2;P2;SDS_P1;SDS_P2;PMS_P1;PMS_P2;Temp;Humidity;BMP_temperature;BMP_pressure;BME280_temperature;BME280_humidity;BME280_pressure;Samples;Min_cycle;Max_cycle;Signal;HPM_P1;HPM_P2
2021/04/24 00:00:34;;;;;;;5.95;4.10;;;;;;;2.61;70.72;100170.19;1668910;85;21177;-74
2021/04/24 00:03:03;;;;;;;7.03;3.60;;;;;;;2.59;70.78;100169.33;1668975;85;21165;-74
2021/04/24 00:05:41;;;;;;;4.78;3.02;;;;;;;2.55;70.65;100178.00;1668943;85;21675;-74
2021/04/24 00:08:10;;;;;;;6.67;3.10;;;;;;;2.55;70.87;100177.14;1668900;85;22717;-75
2021/04/24 00:10:42;;;;;;;5.35;3.10;;;;;;;2.50;70.78;100178.46;1668720;85;21499;-75
2021/04/24 00:13:11;;;;;;;6.70;3.17;;;;;;;2.50;70.78;100178.46;1668850;85;21220;-75
2021/04/24 00:15:40;;;;;;;6.03;3.20;;;;;;;2.47;71.12;100174.58;1668659;85;21212;-74
2021/04/24 00:18:08;;;;;;;9.05;3.62;;;;;;;2.46;71.35;100176.73;1668806;84;21760;-75
2021/04/24 00:20:37;;;;;;;6.05;3.50;;;;;;;2.43;71.37;100176.31;1668815;85;21457;-76
2021/04/24 00:23:06;;;;;;;7.37;3.65;;;;;;;2.41;71.79;100183.69;1668604;85;21229;-75
2021/04/24 00:25:34;;;;;;;4.72;3.08;;;;;;;2.39;72.02;100172.43;1668854;85;21220;-75
2021/04/24 00:28:02;;;;;;;7.28;2.85;;;;;;;2.37;72.15;100167.67;1712867;83;21166;-75
2021/04/24 00:30:31;;;;;;;5.35;3.30;;;;;;;2.36;72.38;100171.15;1714913;83;21182;-74
2021/04/24 00:32:59;;;;;;;7.00;3.35;;;;;;;2.34;72.50;100167.69;1714636;83;22716;-76
2021/04/24 00:35:27;;;;;;;10.58;3.27;;;;;;;2.33;73.11;100171.17;1714722;83;21277;-77
2021/04/24 00:37:56;;;;;;;5.47;3.00;;;;;;;2.31;73.24;100177.22;1714560;83;21194;-75
2021/04/24 00:40:25;;;;;;;4.30;3.10;;;;;;;2.28;73.12;100173.34;1714590;83;21503;-74
2021/04/24 00:42:53;;;;;;;6.30;3.25;;;;;;;2.25;73.18;100172.02;1714720;83;21169;-76
2021/04/24 00:45:23;;;;;;;5.78;3.20;;;;;;;2.24;73.20;100172.91;1714726;83;21160;-74
2021/04/24 00:47:52;;;;;;;5.17;2.73;;;;;;;2.20;73.22;100173.77;1713487;82;21155;-75
2021/04/24 00:50:28;;;;;;;6.03;2.85;;;;;;;2.17;73.24;100171.20;1708091;83;21882;-76
2021/04/24 00:52:56;;;;;;;4.87;3.05;;;;;;;2.16;73.79;100174.64;1649881;86;21787;-75
2021/04/24 00:55:24;;;;;;;7.12;3.42;;;;;;;2.12;73.90;100170.34;1650476;86;21203;-74
2021/04/24 00:57:53;;;;;;;7.70;3.27;;;;;;;2.12;74.07;100174.24;1698235;84;21738;-73
2021/04/24 01:00:22;;;;;;;5.62;3.02;;;;;;;2.13;74.60;100169.47;1680500;84;21144;-73
2021/04/24 01:02:54;;;;;;;6.33;2.92;;;;;;;2.13;74.75;100174.66;1698362;84;21197;-78
2021/04/24 01:05:29;;;;;;;11.03;3.15;;;;;;;2.14;75.14;100175.11;1699510;84;21146;-77
2021/04/24 01:07:57;;;;;;;4.67;2.52;;;;;;;2.18;75.78;100174.65;1701335;84;21162;-78
2021/04/24 01:10:25;;;;;;;4.62;3.22;;;;;;;2.21;75.78;100170.33;1699793;84;21390;-78
2021/04/24 01:12:53;;;;;;;4.45;2.80;;;;;;;2.24;75.48;100170.31;1697874;84;21208;-76
2021/04/24 01:15:23;;;;;;;5.83;2.98;;;;;;;2.27;75.36;100172.89;1680212;84;21196;-76
2021/04/24 01:17:50;;;;;;;8.15;3.60;;;;;;;2.26;75.27;100169.88;1697830;84;21183;-78
2021/04/24 01:20:18;;;;;;;5.50;3.37;;;;;;;2.28;75.56;100164.69;1697863;84;21144;-75
2021/04/24 01:22:49;;;;;;;5.45;2.87;;;;;;;2.28;75.85;100164.24;1696490;84;21826;-76
2021/04/24 01:25:23;;;;;;;6.25;2.75;;;;;;;2.29;75.93;100167.70;1690399;84;21674;-77
2021/04/24 01:27:55;;;;;;;5.65;3.00;;;;;;;2.27;75.67;100170.30;1673049;83;21202;-77
2021/04/24 01:30:28;;;;;;;4.75;2.90;;;;;;;2.26;75.96;100171.61;1671103;85;21199;-77
2021/04/24 01:32:56;;;;;;;7.50;3.33;;;;;;;2.20;75.74;100167.72;1629509;88;22431;-77
2021/04/24 01:35:27;;;;;;;6.78;2.90;;;;;;;2.16;76.36;100165.55;1629440;88;21459;-76
2021/04/24 01:37:56;;;;;;;3.77;2.77;;;;;;;2.12;76.33;100172.05;1629242;88;21238;-75
2021/04/24 01:40:25;;;;;;;5.83;2.77;;;;;;;2.03;76.54;100165.17;1629549;88;21234;-76
2021/04/24 01:42:54;;;;;;;6.78;2.80;;;;;;;1.99;76.69;100159.10;1629479;88;21202;-78
2021/04/24 01:45:23;;;;;;;6.12;3.02;;;;;;;1.96;77.10;100164.75;1629640;88;22241;-77
2021/04/24 01:47:51;;;;;;;5.90;3.25;;;;;;;1.93;76.93;100162.14;1628723;86;21394;-73
2021/04/24 01:50:25;;;;;;;6.17;3.10;;;;;;;1.88;77.15;100161.70;1628516;88;21227;-74
2021/04/24 01:52:53;;;;;;;5.92;3.00;;;;;;;1.84;77.13;100165.59;1628545;88;21242;-74
2021/04/24 01:55:26;;;;;;;7.28;3.20;;;;;;;1.78;77.06;100162.59;1659714;86;21192;-74
2021/04/24 01:57:55;;;;;;;6.50;2.90;;;;;;;1.74;77.07;100166.48;1665792;86;21709;-74
2021/04/24 02:00:30;;;;;;;5.10;2.72;;;;;;;1.68;77.38;100166.07;1661534;86;21646;-74
2021/04/24 02:03:02;;;;;;;4.12;3.08;;;;;;;1.63;77.62;100179.05;1661269;86;21233;-75
2021/04/24 02:05:30;;;;;;;;;;;;;;;1.59;77.79;100176.02;1663929;86;21681;-75
2021/04/24 02:08:10;;;;;;;8.58;3.17;;;;;;;1.56;77.68;100176.44;1677774;84;20323;-75
2021/04/24 02:10:39;;;;;;;4.95;3.00;;;;;;;1.48;78.00;100182.93;1704559;84;21224;-74
2021/04/24 02:13:12;;;;;;;4.22;3.10;;;;;;;1.43;78.38;100171.25;1704155;84;21387;-74
2021/04/24 02:15:40;;;;;;;6.60;3.00;;;;;;;1.41;78.65;100180.76;1703892;83;21263;-75
2021/04/24 02:18:09;;;;;;;6.25;3.22;;;;;;;1.37;79.29;100179.02;1704083;84;21225;-75
2021/04/24 02:20:39;;;;;;;6.42;3.02;;;;;;;1.35;79.34;100183.77;1704200;84;21596;-76
2021/04/24 02:23:08;;;;;;;4.92;3.00;;;;;;;1.31;79.77;100173.84;1704378;84;21643;-75
2021/04/24 02:25:37;;;;;;;9.28;3.30;;;;;;;1.28;80.07;100173.81;1704334;83;22132;-74
2021/04/24 02:28:05;;;;;;;7.45;3.50;;;;;;;1.25;80.23;100173.82;1670795;84;21183;-74
2021/04/24 02:30:34;;;;;;;5.15;3.12;;;;;;;1.22;80.61;100174.69;1670480;85;21749;-74
2021/04/24 02:33:04;;;;;;;6.83;3.52;;;;;;;1.21;80.59;100181.16;1670291;85;21821;-73
2021/04/24 02:35:56;;;;;;;4.50;2.80;;;;;;;1.19;80.59;100180.28;1670535;85;21323;-74
2021/04/24 02:38:32;;;;;;;4.60;3.15;;;;;;;1.17;80.59;100188.48;1670406;85;21351;-74
2021/04/24 02:41:03;;;;;;;6.05;3.15;;;;;;;1.13;81.32;100191.94;1670273;85;21646;-76
2021/04/24 02:43:31;;;;;;;5.42;3.40;;;;;;;1.10;81.60;100189.34;1670604;85;21134;-78
2021/04/24 02:46:01;;;;;;;6.58;3.60;;;;;;;1.09;81.85;100179.84;1669636;84;21888;-77
2021/04/24 02:48:31;;;;;;;5.58;3.37;;;;;;;1.06;82.07;100178.11;1656738;86;21194;-77
2021/04/24 02:51:00;;;;;;;6.12;3.50;;;;;;;1.06;82.11;100183.30;1661514;86;21369;-78
2021/04/24 02:53:28;;;;;;;5.87;3.45;;;;;;;1.04;82.40;100187.17;1753131;79;21646;-75
2021/04/24 02:55:56;;;;;;;7.62;3.87;;;;;;;1.03;82.45;100184.56;1746012;81;21663;-75
2021/04/24 02:58:27;;;;;;;5.53;3.37;;;;;;;1.01;82.65;100192.36;1754568;80;21059;-74
2021/04/24 03:00:58;;;;;;;4.95;3.40;;;;;;;1.00;82.75;100194.50;1758713;78;21173;-74
2021/04/24 03:03:27;;;;;;;6.03;3.47;;;;;;;1.00;83.02;100189.31;1744428;82;21201;-73
2021/04/24 03:05:57;;;;;;;5.72;3.87;;;;;;;0.98;83.21;100190.18;1746012;82;21159;-76
2021/04/24 03:08:26;;;;;;;8.93;4.12;;;;;;;0.97;83.51;100197.10;1675723;81;21183;-75
2021/04/24 03:10:54;;;;;;;6.80;3.87;;;;;;;0.98;83.84;100201.84;1717435;83;21218;-75
2021/04/24 03:13:23;;;;;;;8.85;3.92;;;;;;;0.99;83.92;100203.16;1717998;83;21776;-74
2021/04/24 03:15:50;;;;;;;7.00;4.10;;;;;;;0.99;84.24;100205.75;1714742;82;21771;-75
2021/04/24 03:18:19;;;;;;;6.92;4.10;;;;;;;1.15;84.64;100204.48;1712129;83;21654;-75
2021/04/24 03:20:46;;;;;;;8.00;3.92;;;;;;;1.59;84.44;100198.52;1712219;83;21187;-76
2021/04/24 03:23:14;;;;;;;5.53;3.52;;;;;;;2.06;83.45;100196.33;1711445;83;21249;-76
2021/04/24 03:25:43;;;;;;;7.03;4.33;;;;;;;2.49;82.10;100196.24;1710662;83;21208;-75
2021/04/24 03:28:10;;;;;;;7.00;3.72;;;;;;;2.87;80.16;100200.42;1683336;85;21822;-75
2021/04/24 03:30:38;;;;;;;5.97;4.30;;;;;;;3.27;79.29;100193.28;1683568;85;21692;-76
2021/04/24 03:33:06;;;;;;;9.33;3.98;;;;;;;3.67;77.64;100192.13;1683449;85;21167;-77
2021/04/24 03:35:35;;;;;;;8.10;4.40;;;;;;;3.94;76.23;100194.50;1700672;83;21658;-78
2021/04/24 03:38:03;;;;;;;6.47;4.03;;;;;;;4.13;74.61;100192.58;1710686;83;21710;-76
2021/04/24 03:40:33;;;;;;;7.95;4.03;;;;;;;4.28;73.46;100194.19;1683089;83;22166;-75
2021/04/24 03:43:01;;;;;;;7.45;4.03;;;;;;;4.48;73.50;100200.92;1712188;83;21164;-77
2021/04/24 03:45:31;;;;;;;5.58;3.62;;;;;;;4.63;72.69;100216.41;1712269;83;21223;-76
2021/04/24 03:47:59;;;;;;;7.28;4.20;;;;;;;4.64;72.14;100215.52;1707319;83;21159;-79
2021/04/24 03:50:27;;;;;;;6.10;3.52;;;;;;;4.56;71.96;100223.88;1707151;83;21204;-81
2021/04/24 03:52:55;;;;;;;6.45;3.92;;;;;;;4.31;71.68;100229.34;1700641;83;21444;-81
2021/04/24 03:55:23;;;;;;;8.40;4.28;;;;;;;4.10;72.52;100229.11;1707283;83;21205;-77
2021/04/24 04:00:31;;;;;;;8.67;4.17;;;;;;;4.09;73.58;100234.33;1887572;76;25218;-76
2021/04/24 04:03:01;;;;;;;9.85;4.78;;;;;;;4.10;73.33;100230.41;1764847;80;21047;-78
2021/04/24 04:05:39;;;;;;;8.05;4.95;;;;;;;4.14;72.41;100228.62;1812606;78;22330;-77
2021/04/24 04:08:09;;;;;;;11.10;4.50;;;;;;;4.05;73.11;100230.02;1804314;78;21155;-78
2021/04/24 04:10:38;;;;;;;9.45;4.28;;;;;;;3.98;73.16;100235.30;1780172;80;21227;-77
2021/04/24 04:13:06;;;;;;;8.80;4.55;;;;;;;3.92;72.96;100235.78;1815401;78;22082;-77
2021/04/24 04:15:34;;;;;;;7.28;4.05;;;;;;;3.87;73.25;100234.52;1805828;78;21189;-77
2021/04/24 04:18:12;;;;;;;7.35;4.28;;;;;;;3.85;73.83;100235.41;1788176;80;21650;-78
2021/04/24 04:20:53;;;;;;;6.42;4.37;;;;;;;3.85;73.96;100240.17;1787355;80;21221;-77
2021/04/24 04:23:25;;;;;;;13.13;4.22;;;;;;;3.87;74.01;100237.57;1759800;80;21206;-77
2021/04/24 04:25:55;;;;;;;7.25;3.92;;;;;;;3.90;73.95;100244.91;1751755;80;21188;-80
2021/04/24 04:28:23;;;;;;;7.90;3.83;;;;;;;3.97;73.93;100243.98;1738752;81;21623;-76
2021/04/24 04:30:52;;;;;;;5.62;3.62;;;;;;;4.04;74.29;100241.33;1760620;81;21207;-76
2021/04/24 04:33:21;;;;;;;7.80;3.70;;;;;;;4.13;74.04;100228.22;1757198;81;21677;-77
2021/04/24 04:35:49;;;;;;;7.45;4.08;;;;;;;4.22;73.51;100239.86;1788550;80;21766;-77
2021/04/24 04:38:17;;;;;;;7.42;3.98;;;;;;;4.30;72.64;100248.91;1757195;81;21186;-76
2021/04/24 04:40:45;;;;;;;5.12;3.02;;;;;;;4.30;72.53;100249.80;1788675;80;21736;-77
2021/04/24 04:43:13;;;;;;;5.65;3.40;;;;;;;4.33;72.23;100245.84;1753554;81;21446;-77
2021/04/24 04:45:41;;;;;;;5.85;3.45;;;;;;;4.38;71.67;100241.44;1766375;80;21194;-77
2021/04/24 04:48:09;;;;;;;8.98;4.37;;;;;;;4.55;71.72;100240.39;1785660;80;21169;-78
2021/04/24 04:50:38;;;;;;;5.80;3.55;;;;;;;4.71;70.31;100241.95;1788883;79;21166;-77
2021/04/24 04:53:07;;;;;;;8.00;4.10;;;;;;;4.80;68.64;100244.45;1787606;79;21576;-77
2021/04/24 04:55:36;;;;;;;8.90;4.20;;;;;;;4.80;68.49;100243.15;1783736;80;21341;-77
2021/04/24 04:58:04;;;;;;;7.17;3.50;;;;;;;4.71;67.96;100242.40;1783542;80;21186;-77
2021/04/24 05:00:32;;;;;;;6.30;3.12;;;;;;;4.59;67.54;100243.41;1783513;80;21207;-77
2021/04/24 05:03:00;;;;;;;5.33;3.35;;;;;;;4.59;68.05;100245.56;1783923;79;21163;-77
2021/04/24 05:05:28;;;;;;;5.35;3.20;;;;;;;4.53;69.26;100213.47;1783835;80;21159;-77
2021/04/24 05:07:56;;;;;;;5.62;3.45;;;;;;;4.76;68.09;100249.31;1784936;80;22277;-77
2021/04/24 05:10:25;;;;;;;6.28;3.55;;;;;;;4.87;68.89;100253.53;1785669;80;21654;-77
2021/04/24 05:12:53;;;;;;;8.25;3.40;;;;;;;5.01;69.41;100243.78;1781843;80;21570;-78
2021/04/24 05:15:21;;;;;;;7.08;3.40;;;;;;;5.14;67.15;100245.36;1785563;80;21166;-77
2021/04/24 05:17:51;;;;;;;7.58;3.52;;;;;;;5.16;66.91;100243.59;1783896;79;21610;-78
2021/04/24 05:20:18;;;;;;;6.62;3.33;;;;;;;5.16;66.49;100248.81;1778632;80;21646;-77
2021/04/24 05:22:47;;;;;;;5.72;3.17;;;;;;;5.38;66.86;100244.60;1786427;78;21196;-78
2021/04/24 05:25:16;;;;;;;8.95;5.83;;;;;;;5.79;65.81;100235.30;1755786;81;21182;-78
2021/04/24 05:27:46;;;;;;;7.53;2.98;;;;;;;6.32;64.78;100228.33;1774451;80;21606;-78
2021/04/24 05:30:17;;;;;;;5.55;3.20;;;;;;;6.84;61.42;100226.48;1779954;80;21166;-77
2021/04/24 05:32:46;;;;;;;5.90;2.75;;;;;;;7.26;60.32;100218.16;1779928;80;21201;-77
2021/04/24 05:35:15;;;;;;;5.42;3.10;;;;;;;7.69;58.72;100218.49;1769247;80;21234;-76
2021/04/24 05:37:43;;;;;;;6.75;2.70;;;;;;;8.01;56.66;100220.78;1754602;80;21166;-76
2021/04/24 05:40:12;;;;;;;5.33;2.72;;;;;;;8.09;57.05;100230.63;1768960;81;21201;-76
2021/04/24 05:42:40;;;;;;;4.30;2.42;;;;;;;7.96;56.67;100231.39;1749169;81;21158;-74
2021/04/24 05:45:12;;;;;;;4.25;2.47;;;;;;;7.78;56.84;100235.31;1783477;80;22654;-76
2021/04/24 05:47:48;;;;;;;6.00;2.80;;;;;;;7.46;56.37;100229.97;1763175;81;21170;-74
2021/04/24 05:50:20;;;;;;;4.95;2.52;;;;;;;7.17;60.51;100235.38;1769239;81;21215;-76
2021/04/24 05:52:50;;;;;;;5.80;2.95;;;;;;;7.03;57.56;100229.58;1738085;81;21222;-75
2021/04/24 05:55:19;;;;;;;8.48;3.10;;;;;;;6.78;57.61;100244.47;1768569;81;21166;-75
2021/04/24 05:57:47;;;;;;;7.03;3.37;;;;;;;6.51;59.21;100246.73;1769537;80;21374;-74
2021/04/24 06:00:20;;;;;;;4.62;3.17;;;;;;;6.24;59.20;100240.69;1771049;80;21154;-74
2021/04/24 06:02:49;;;;;;;8.18;3.30;;;;;;;6.04;60.78;100239.27;1757367;80;21194;-75
2021/04/24 06:05:17;;;;;;;4.12;2.75;;;;;;;5.92;60.98;100245.98;1773748;80;21162;-76
2021/04/24 06:07:46;;;;;;;9.50;3.70;;;;;;;5.81;61.48;100236.98;1758240;81;21166;-75
2021/04/24 06:10:17;;;;;;;7.28;3.27;;;;;;;5.78;61.62;100246.64;1752587;81;21440;-74
2021/04/24 06:12:47;;;;;;;6.25;3.05;;;;;;;5.67;62.43;100241.13;1751790;81;21220;-75
2021/04/24 06:15:18;;;;;;;6.03;3.02;;;;;;;5.75;62.76;100245.37;1776564;79;21227;-73
2021/04/24 06:17:46;;;;;;;8.38;3.25;;;;;;;6.09;62.57;100240.05;1748988;81;21200;-74
2021/04/24 06:20:15;;;;;;;7.50;3.12;;;;;;;6.47;63.01;100242.45;1774962;80;21452;-74
2021/04/24 06:22:43;;;;;;;5.53;3.12;;;;;;;6.89;61.62;100241.64;1777360;80;21363;-75
2021/04/24 06:25:16;;;;;;;7.40;3.50;;;;;;;7.16;57.22;100241.53;1768301;80;21246;-75
2021/04/24 06:27:45;;;;;;;6.58;3.00;;;;;;;7.16;56.13;100236.75;1777641;80;21198;-75
2021/04/24 06:30:16;;;;;;;6.97;3.17;;;;;;;7.08;57.61;100236.89;1770413;80;21665;-74
2021/04/24 06:32:45;;;;;;;6.65;3.30;;;;;;;7.19;54.95;100237.52;1770118;80;21222;-75
2021/04/24 06:35:14;;;;;;;7.85;2.92;;;;;;;7.29;55.10;100227.70;1771529;80;21642;-74
2021/04/24 06:37:42;;;;;;;14.75;3.15;;;;;;;7.14;53.74;100228.91;1781880;80;21634;-73
2021/04/24 06:40:13;;;;;;;5.90;2.90;;;;;;;7.31;55.11;100230.70;1778811;80;21162;-75
2021/04/24 06:42:43;;;;;;;6.35;3.25;;;;;;;7.77;52.82;100219.61;1775373;78;21214;-74
2021/04/24 06:45:12;;;;;;;7.85;2.58;;;;;;;8.53;52.88;100219.89;1782734;79;21214;-74
2021/04/24 06:47:40;;;;;;;7.58;2.52;;;;;;;9.48;48.73;100225.47;1778375;80;21198;-74
2021/04/24 06:50:10;;;;;;;4.42;2.17;;;;;;;10.18;43.83;100217.92;1751813;80;21240;-75
2021/04/24 06:52:39;;;;;;;4.53;1.75;;;;;;;10.59;42.07;100214.34;1768602;79;21225;-74
2021/04/24 06:55:11;;;;;;;5.08;1.82;;;;;;;10.83;41.00;100210.41;1762879;80;21201;-73
2021/04/24 06:57:39;;;;;;;4.78;2.15;;;;;;;11.03;43.35;100209.69;1768216;81;22237;-73
2021/04/24 07:00:08;;;;;;;5.28;2.02;;;;;;;11.03;41.55;100226.34;1761303;81;22190;-75
2021/04/24 07:02:36;;;;;;;3.80;2.25;;;;;;;10.97;40.63;100219.13;1757473;81;21258;-75
2021/04/24 07:05:08;;;;;;;5.80;1.82;;;;;;;11.09;42.04;100214.27;1755892;81;21183;-76
2021/04/24 07:07:37;;;;;;;9.30;2.33;;;;;;;11.09;40.99;100219.54;1758414;81;21626;-74
2021/04/24 07:10:07;;;;;;;3.13;1.70;;;;;;;11.02;39.57;100235.19;1754072;81;21191;-73
2021/04/24 07:12:35;;;;;;;2.92;1.82;;;;;;;10.68;38.00;100227.19;1749334;81;22215;-74
2021/04/24 07:15:05;;;;;;;4.10;1.72;;;;;;;10.34;37.52;100234.55;1768395;79;21150;-74
2021/04/24 07:17:34;;;;;;;2.45;1.60;;;;;;;10.34;37.73;100238.50;1723897;83;21161;-75
2021/04/24 07:20:04;;;;;;;3.67;1.50;;;;;;;10.48;36.88;100245.00;1736018;81;21199;-75
2021/04/24 07:22:32;;;;;;;3.75;1.60;;;;;;;10.48;36.76;100245.46;1772104;80;21182;-74
2021/04/24 07:25:00;;;;;;;2.92;1.70;;;;;;;10.61;38.44;100240.17;1761699;81;21378;-74
2021/04/24 07:27:28;;;;;;;3.90;1.62;;;;;;;11.21;36.55;100229.22;1761080;81;21191;-74
2021/04/24 07:29:56;;;;;;;3.12;1.20;;;;;;;11.57;37.64;100232.66;1760371;80;21185;-74
2021/04/24 07:32:24;;;;;;;4.67;1.65;;;;;;;11.60;33.76;100239.15;1761990;80;21242;-77
2021/04/24 07:34:52;;;;;;;4.72;1.57;;;;;;;11.25;33.51;100225.52;1762088;81;21103;-75
2021/04/24 07:37:20;;;;;;;4.50;1.37;;;;;;;10.97;39.69;100252.91;1754595;81;21786;-74
2021/04/24 07:39:49;;;;;;;4.12;1.77;;;;;;;10.71;35.19;100236.28;1755022;80;21146;-76
2021/04/24 07:42:18;;;;;;;1.60;1.07;;;;;;;10.37;35.49;100251.55;1759782;80;21171;-76
2021/04/24 07:44:46;;;;;;;2.20;1.47;;;;;;;10.02;35.93;100249.61;1749641;81;21218;-75
2021/04/24 07:47:15;;;;;;;3.45;1.30;;;;;;;9.78;35.67;100254.77;1761455;80;21135;-76
2021/04/24 07:49:43;;;;;;;2.47;1.30;;;;;;;9.54;37.12;100262.09;1737028;82;22553;-76
2021/04/24 07:52:14;;;;;;;1.62;1.10;;;;;;;9.34;36.42;100255.69;1755256;79;21221;-76
2021/04/24 07:54:43;;;;;;;4.80;1.42;;;;;;;9.23;35.33;100258.62;1767079;79;21126;-76
2021/04/24 07:57:15;;;;;;;3.77;1.60;;;;;;;9.32;35.91;100252.23;1759969;79;21629;-75
2021/04/24 07:59:44;;;;;;;4.58;1.60;;;;;;;9.80;36.52;100245.06;1758508;80;21149;-76
2021/04/24 08:02:15;;;;;;;5.90;2.52;;;;;;;10.39;32.94;100244.46;1749175;80;21808;-74
2021/04/24 08:04:43;;;;;;;4.33;1.52;;;;;;;10.52;35.07;100240.50;1751456;81;21174;-76
2021/04/24 08:07:12;;;;;;;4.55;1.90;;;;;;;10.47;34.62;100239.80;1754645;81;21602;-76
2021/04/24 08:09:42;;;;;;;4.12;1.70;;;;;;;10.58;34.49;100253.45;1754720;81;21138;-75
2021/04/24 08:12:11;;;;;;;2.47;1.40;;;;;;;10.90;33.92;100248.79;1731782;81;21127;-75
2021/04/24 08:14:39;;;;;;;7.37;1.15;;;;;;;11.06;32.49;100255.21;1772796;80;21412;-78
2021/04/24 08:17:07;;;;;;;4.15;1.50;;;;;;;11.12;34.06;100246.23;1752035;81;21194;-77
2021/04/24 08:19:35;;;;;;;3.35;1.60;;;;;;;10.90;33.03;100217.17;1755003;81;21126;-77
2021/04/24 08:22:04;;;;;;;3.98;1.60;;;;;;;10.92;32.63;100252.23;1757885;80;21151;-77
2021/04/24 08:24:32;;;;;;;3.77;1.07;;;;;;;10.65;32.67;100253.64;1708617;81;21091;-77
2021/04/24 08:27:00;;;;;;;3.00;1.15;;;;;;;10.37;33.42;100259.45;1758587;77;21800;-77
2021/04/24 08:29:28;;;;;;;7.45;1.80;;;;;;;10.36;33.70;100266.95;1766258;80;21035;-77
2021/04/24 08:31:59;;;;;;;1.95;1.17;;;;;;;10.40;33.80;100254.06;1760822;80;21422;-77
2021/04/24 08:34:27;;;;;;;4.53;1.20;;;;;;;10.41;33.64;100256.66;1759018;81;21130;-77
2021/04/24 08:36:55;;;;;;;4.15;1.52;;;;;;;10.24;33.71;100250.63;1748423;80;21107;-77
2021/04/24 08:39:25;;;;;;;4.08;1.20;;;;;;;10.07;34.37;100250.31;1752457;80;21390;-76
2021/04/24 08:41:53;;;;;;;9.45;1.80;;;;;;;9.76;34.94;100272.36;1760958;79;21695;-77
2021/04/24 08:44:22;;;;;;;5.45;1.90;;;;;;;9.57;38.33;100271.19;1767677;80;21043;-77
2021/04/24 08:46:51;;;;;;;4.22;1.37;;;;;;;9.39;37.94;100280.52;1740570;81;21166;-76
2021/04/24 08:49:22;;;;;;;2.02;0.80;;;;;;;9.49;37.21;100270.12;1761798;80;21160;-77
2021/04/24 08:51:50;;;;;;;1.85;1.12;;;;;;;9.49;37.21;100270.12;1772706;77;22097;-76
2021/04/24 08:54:20;;;;;;;3.58;1.20;;;;;;;9.57;37.82;100271.19;1735567;80;21172;-77
2021/04/24 08:56:48;;;;;;;8.83;3.08;;;;;;;9.53;37.58;100270.90;1733439;80;21457;-77
2021/04/24 08:59:16;;;;;;;5.33;1.62;;;;;;;9.55;37.66;100300.64;1751212;79;21103;-77
2021/04/24 09:01:45;;;;;;;2.52;1.05;;;;;;;9.52;37.26;100298.08;1758564;79;21114;-76
2021/04/24 09:04:13;;;;;;;2.62;1.20;;;;;;;9.49;35.19;100293.78;1739256;81;21750;-76
2021/04/24 09:06:41;;;;;;;1.47;0.90;;;;;;;9.72;36.32;100277.30;1760531;80;21234;-77
2021/04/24 09:09:11;;;;;;;3.15;1.32;;;;;;;10.08;35.78;100262.58;1742499;80;21194;-71
2021/04/24 09:11:48;;;;;;;5.40;1.20;;;;;;;10.29;36.14;100281.63;1763255;80;21225;-70
2021/04/24 09:14:17;;;;;;;4.50;1.20;;;;;;;10.26;35.92;100297.50;1723201;82;21693;-71
2021/04/24 09:16:46;;;;;;;4.33;1.10;;;;;;;10.06;36.92;100295.51;1724101;81;21311;-69
2021/04/24 09:22:23;;;;;;;15.33;1.73;;;;;;;10.46;37.70;100285.46;1862617;76;27698;-70
2021/04/24 09:24:54;;;;;;;1.65;0.90;;;;;;;10.61;37.42;100284.95;1762656;76;21139;-77
2021/04/24 09:27:43;;;;;;;3.47;0.95;;;;;;;11.04;34.87;100278.16;1701764;82;21345;-77
2021/04/24 09:30:27;;;;;;;5.53;1.00;;;;;;;11.39;34.38;100274.66;1703400;82;21189;-77
2021/04/24 09:33:05;;;;;;;2.20;1.05;;;;;;;11.62;32.98;100266.30;1737916;80;21212;-77
2021/04/24 09:35:43;;;;;;;6.92;1.00;;;;;;;11.65;32.28;100283.34;1736829;80;21174;-77
2021/04/24 09:38:21;;;;;;;5.42;1.52;;;;;;;11.52;32.51;100293.02;1747429;80;21156;-76
2021/04/24 09:41:11;;;;;;;4.25;1.20;;;;;;;11.29;38.59;100295.68;1736396;81;21419;-77
2021/04/24 09:44:02;;;;;;;3.58;1.10;;;;;;;11.30;35.65;100294.78;1724030;82;21172;-77
2021/04/24 09:46:47;;;;;;;2.20;1.00;;;;;;;11.49;33.89;100283.92;1733371;82;21251;-77
2021/04/24 09:49:25;;;;;;;5.17;2.70;;;;;;;11.61;33.06;100285.69;1733065;81;21259;-77
2021/04/24 09:52:02;;;;;;;5.22;1.75;;;;;;;11.77;33.57;100278.89;1692970;82;21279;-76
2021/04/24 09:54:38;;;;;;;4.25;2.17;;;;;;;11.83;31.72;100286.58;1721183;81;21397;-76
2021/04/24 09:57:19;;;;;;;8.88;2.33;;;;;;;11.86;33.73;100282.48;1706190;81;21498;-77
2021/04/24 10:00:00;;;;;;;2.87;1.40;;;;;;;12.03;32.79;100291.53;1732892;81;21180;-77
2021/04/24 10:02:34;;;;;;;2.08;0.95;;;;;;;12.17;32.31;100291.86;1747506;81;21127;-76
2021/04/24 10:05:21;;;;;;;1.47;0.88;;;;;;;12.21;31.95;100294.74;1732978;82;21177;-76
2021/04/24 10:07:53;;;;;;;3.20;1.10;;;;;;;12.00;31.82;100297.80;1732777;82;21200;-78
2021/04/24 10:10:36;;;;;;;2.65;1.05;;;;;;;12.18;31.70;100293.09;1702145;81;21688;-78
2021/04/24 10:13:06;;;;;;;4.20;0.95;;;;;;;12.46;32.12;100284.48;1709181;82;22153;-79
2021/04/24 10:15:46;;;;;;;;;;;;;;;12.73;30.91;100288.59;1734148;82;21237;-79
2021/04/24 10:18:16;;;;;;;5.55;1.00;;;;;;;12.90;32.84;100273.77;1732183;81;20294;-79
2021/04/24 10:20:46;;;;;;;4.62;1.20;;;;;;;12.94;30.26;100277.53;1733263;81;21424;-79
2021/04/24 10:23:16;;;;;;;3.80;1.10;;;;;;;12.96;31.52;100282.77;1732787;82;21244;-79
2021/04/24 10:25:45;;;;;;;2.30;1.27;;;;;;;13.14;31.32;100291.19;1732709;81;21192;-79
2021/04/24 10:28:15;;;;;;;9.60;1.37;;;;;;;13.11;30.47;100288.70;1725012;82;21221;-79
2021/04/24 10:30:43;;;;;;;3.40;1.90;;;;;;;12.88;29.56;100284.41;1733045;81;21165;-79
2021/04/24 10:33:12;;;;;;;7.67;1.50;;;;;;;12.87;30.85;100288.45;1704058;82;21785;-79
2021/04/24 10:35:40;;;;;;;6.67;1.40;;;;;;;12.71;30.81;100296.19;1732316;82;21200;-79
2021/04/24 10:38:07;;;;;;;2.80;1.12;;;;;;;12.56;29.88;100314.86;1732272;82;21126;-78
2021/04/24 10:40:46;;;;;;;2.92;0.98;;;;;;;12.35;30.36;100305.62;1734873;81;21200;-79
2021/04/24 10:43:23;;;;;;;7.45;1.95;;;;;;;12.10;30.76;100308.41;1739574;81;21184;-76
2021/04/24 10:45:51;;;;;;;2.52;1.40;;;;;;;12.02;32.17;100314.91;1734316;81;21789;-75
2021/04/24 10:48:24;;;;;;;2.15;0.90;;;;;;;12.24;32.01;100314.44;1685464;82;21663;-77
2021/04/24 10:50:53;;;;;;;3.90;1.45;;;;;;;12.47;32.67;100315.25;1701223;82;21236;-78
2021/04/24 10:53:26;;;;;;;2.98;1.10;;;;;;;12.53;33.93;100308.39;1730547;81;21693;-78
2021/04/24 10:55:56;;;;;;;2.00;1.00;;;;;;;12.78;32.04;100311.70;1733226;81;21220;-79
2021/04/24 10:58:29;;;;;;;3.27;0.80;;;;;;;13.05;30.64;100314.55;1696194;82;21541;-79
2021/04/24 11:00:59;;;;;;;6.25;1.15;;;;;;;13.09;30.16;100315.66;1732109;81;21159;-77
2021/04/24 11:05:31;;;;;;;9.63;4.40;;;;;;;12.90;29.11;100317.38;1753208;79;28257;-77
2021/04/24 11:08:15;;;;;;;6.40;2.42;;;;;;;12.83;30.37;100310.65;1739624;82;21183;-76
2021/04/24 11:11:02;;;;;;;7.42;1.20;;;;;;;12.64;30.06;100316.73;1728928;81;21376;-77
2021/04/24 11:13:37;;;;;;;2.75;1.30;;;;;;;12.27;29.75;100323.55;1703728;83;21230;-78
2021/04/24 11:16:10;;;;;;;3.60;1.10;;;;;;;11.91;31.43;100329.37;1711152;83;21207;-78
2021/04/24 11:18:42;;;;;;;2.58;1.02;;;;;;;11.81;32.98;100329.78;1699623;83;21232;-80
2021/04/24 11:21:24;;;;;;;3.55;0.85;;;;;;;12.11;33.30;100322.45;1694323;83;21620;-80
2021/04/24 11:24:03;;;;;;;4.78;1.37;;;;;;;12.45;33.32;100311.84;1699616;83;21811;-80
2021/04/24 11:26:39;;;;;;;2.27;1.00;;;;;;;12.63;31.73;100314.14;1696665;83;21176;-81
2021/04/24 11:29:22;;;;;;;1.50;0.80;;;;;;;12.77;31.21;100320.57;1705019;83;21455;-79
2021/04/24 11:32:06;;;;;;;3.27;1.00;;;;;;;12.76;27.86;100316.19;1709138;83;21610;-81
2021/04/24 11:34:41;;;;;;;4.33;1.02;;;;;;;12.96;28.79;100311.84;1679947;85;21207;-80
2021/04/24 11:37:24;;;;;;;6.85;1.55;;;;;;;12.99;29.17;100311.70;1671465;85;21686;-77
2021/04/24 11:43:08;;;;;;;4.28;1.30;;;;;;;12.36;30.74;100328.45;1877425;74;28576;-77
2021/04/24 11:45:53;;;;;;;3.92;1.20;;;;;;;11.63;32.14;100351.98;1841761;75;21157;-77
2021/04/24 11:48:49;;;;;;;4.15;1.60;;;;;;;10.97;35.55;100345.14;1811526;76;28315;-76
2021/04/24 11:51:45;;;;;;;10.23;2.55;;;;;;;10.67;37.50;100336.53;1766386;80;21171;-77
2021/04/24 11:57:19;;;;;;;4.70;1.82;;;;;;;11.25;34.40;100330.97;1863788;76;28477;-75
2021/04/24 11:59:49;;;;;;;12.07;2.27;;;;;;;11.52;32.99;100331.27;1770485;80;21141;-76
2021/04/24 12:02:23;;;;;;;4.50;1.00;;;;;;;11.88;32.62;100308.39;1758848;80;21215;-77